createdAt,value
2022-12-04T00:00:36.356Z,14.63
2022-12-04T00:03:04.128Z,12.85
2022-12-04T00:05:31.800Z,14.73
2022-12-04T00:08:00.897Z,14.50
2022-12-04T00:10:28.664Z,14.63
2022-12-04T00:12:56.333Z,14.80
2022-12-04T00:15:25.988Z,13.40
2022-12-04T00:17:54.624Z,14.10
2022-12-04T00:20:23.018Z,14.25
2022-12-04T00:22:50.663Z,14.65
2022-12-04T00:25:19.919Z,13.65
2022-12-04T00:27:47.557Z,16.08
2022-12-04T00:30:15.574Z,14.63
2022-12-04T00:32:43.248Z,15.98
2022-12-04T00:35:11.007Z,14.77
2022-12-04T00:37:38.757Z,13.60
2022-12-04T00:40:08.027Z,14.52
2022-12-04T00:42:37.027Z,14.13
2022-12-04T00:45:05.325Z,15.10
2022-12-04T00:47:33.014Z,15.55
2022-12-04T00:50:00.621Z,14.93
2022-12-04T00:52:28.626Z,14.50
2022-12-04T00:54:56.275Z,15.95
2022-12-04T00:57:23.932Z,14.98
2022-12-04T00:59:53.159Z,14.10
2022-12-04T01:02:21.149Z,13.55
2022-12-04T01:04:48.780Z,14.70
2022-12-04T01:07:16.577Z,15.60
2022-12-04T01:09:44.203Z,15.15
2022-12-04T01:12:16.170Z,14.45
2022-12-04T01:14:46.762Z,14.82
2022-12-04T01:17:15.797Z,15.18
2022-12-04T01:19:43.468Z,16.25
2022-12-04T01:22:11.283Z,14.55
2022-12-04T01:24:38.940Z,14.57
2022-12-04T01:27:06.611Z,16.20
2022-12-04T01:29:34.708Z,15.57
2022-12-04T01:32:02.447Z,15.25
2022-12-04T01:34:31.531Z,13.85
2022-12-04T01:36:59.187Z,15.10
2022-12-04T01:39:26.819Z,15.85
2022-12-04T01:41:54.494Z,16.30
2022-12-04T01:44:23.933Z,14.05
2022-12-04T01:46:52.685Z,15.18
2022-12-04T01:49:24.860Z,17.02
2022-12-04T01:51:57.596Z,14.98
2022-12-04T01:54:31.027Z,14.30
2022-12-04T01:57:02.443Z,15.73
2022-12-04T01:59:34.299Z,18.33
2022-12-04T02:02:05.759Z,15.88
2022-12-04T02:04:35.386Z,14.50
2022-12-04T02:07:05.091Z,15.85
2022-12-04T02:09:34.368Z,14.57
2022-12-04T02:12:09.267Z,17.70
2022-12-04T02:14:46.096Z,14.98
2022-12-04T02:17:23.395Z,15.88
2022-12-04T02:20:06.708Z,13.48
2022-12-04T02:22:54.856Z,15.60
2022-12-04T02:25:30.415Z,14.38
2022-12-04T02:28:06.078Z,16.65
2022-12-04T02:30:37.970Z,16.73
2022-12-04T02:33:12.997Z,16.77
2022-12-04T02:35:43.926Z,15.88
2022-12-04T02:38:17.391Z,15.82
2022-12-04T02:40:52.599Z,14.90
2022-12-04T02:43:25.636Z,15.07
2022-12-04T02:46:00.075Z,15.52
2022-12-04T02:48:32.200Z,17.17
2022-12-04T02:51:02.980Z,17.45
2022-12-04T02:53:33.460Z,16.50
2022-12-04T02:56:04.469Z,15.77
2022-12-04T02:58:38.308Z,14.45
2022-12-04T03:01:19.458Z,15.82
2022-12-04T03:03:53.489Z,15.90
2022-12-04T03:06:23.021Z,15.00
2022-12-04T03:08:54.531Z,16.60
2022-12-04T03:11:22.569Z,15.50
2022-12-04T03:13:56.238Z,16.85
2022-12-04T03:16:27.209Z,15.50
2022-12-04T03:18:59.096Z,16.35
2022-12-04T03:21:32.493Z,16.58
2022-12-04T03:24:06.176Z,15.63
2022-12-04T03:26:38.384Z,17.73
2022-12-04T03:29:13.105Z,15.68
2022-12-04T03:31:45.194Z,16.63
2022-12-04T03:34:16.028Z,16.48
2022-12-04T03:36:50.132Z,15.00
2022-12-04T03:39:22.236Z,15.45
2022-12-04T03:41:58.199Z,16.67
2022-12-04T03:44:33.752Z,16.30
2022-12-04T03:47:05.774Z,17.00
2022-12-04T03:49:43.318Z,16.48
2022-12-04T03:52:18.061Z,16.17
2022-12-04T03:54:50.840Z,15.20
2022-12-04T03:57:23.860Z,17.77
2022-12-04T03:59:59.984Z,16.02
2022-12-04T04:02:34.059Z,17.75
2022-12-04T04:05:03.729Z,17.13
2022-12-04T04:07:36.058Z,16.10
2022-12-04T04:10:08.333Z,14.50
2022-12-04T04:12:40.938Z,18.13
2022-12-04T04:15:32.239Z,15.63
2022-12-04T04:18:19.758Z,14.65
2022-12-04T04:21:08.547Z,15.43
2022-12-04T04:23:58.439Z,15.82
2022-12-04T04:26:30.130Z,14.88
2022-12-04T04:28:57.777Z,15.85
2022-12-04T04:31:34.945Z,15.52
2022-12-04T04:34:12.325Z,15.18
2022-12-04T04:36:48.676Z,17.60
2022-12-04T04:39:25.498Z,15.52
2022-12-04T04:41:58.859Z,17.25
2022-12-04T04:44:32.191Z,15.90
2022-12-04T04:47:04.739Z,17.25
2022-12-04T04:49:35.431Z,17.55
2022-12-04T04:52:03.861Z,16.63
2022-12-04T04:54:32.643Z,17.23
2022-12-04T04:57:00.304Z,17.05
2022-12-04T04:59:27.929Z,15.73
2022-12-04T05:01:55.754Z,17.10
2022-12-04T05:04:24.765Z,17.42
2022-12-04T05:06:52.413Z,17.10
2022-12-04T05:09:20.033Z,16.98
2022-12-04T05:11:47.729Z,17.83
2022-12-04T05:14:15.343Z,17.48
2022-12-04T05:16:42.958Z,16.33
2022-12-04T05:19:27.716Z,17.63
2022-12-04T05:21:57.501Z,17.75
2022-12-04T05:24:25.144Z,17.45
2022-12-04T05:26:52.816Z,17.17
2022-12-04T05:29:20.604Z,16.55
2022-12-04T05:31:48.301Z,16.70
2022-12-04T05:34:15.968Z,16.20
2022-12-04T05:36:43.652Z,17.08
2022-12-04T05:39:12.631Z,17.10
2022-12-04T05:41:40.308Z,18.10
2022-12-04T05:44:07.963Z,18.08
2022-12-04T05:46:35.642Z,17.20
2022-12-04T05:49:03.309Z,17.27
2022-12-04T05:51:30.946Z,15.38
2022-12-04T05:53:58.616Z,16.58
2022-12-04T05:56:27.628Z,16.48
2022-12-04T05:58:55.270Z,16.63
2022-12-04T06:01:25.053Z,16.08
2022-12-04T06:03:53.155Z,17.50
2022-12-04T06:06:22.957Z,16.85
2022-12-04T06:08:51.696Z,15.88
2022-12-04T06:11:22.181Z,14.70
2022-12-04T06:13:51.557Z,16.33
2022-12-04T06:16:21.071Z,15.07
2022-12-04T06:18:51.596Z,17.05
2022-12-04T06:21:19.716Z,16.92
2022-12-04T06:23:47.811Z,17.17
2022-12-04T06:26:16.094Z,14.57
2022-12-04T06:28:43.939Z,15.30
2022-12-04T06:31:15.399Z,16.33
2022-12-04T06:33:43.819Z,17.15
2022-12-04T06:36:14.543Z,14.60
2022-12-04T06:38:42.778Z,16.23
2022-12-04T06:41:12.821Z,16.42
2022-12-04T06:43:41.467Z,15.02
2022-12-04T06:46:11.345Z,15.85
2022-12-04T06:48:41.094Z,14.15
2022-12-04T06:51:10.449Z,12.93
2022-12-04T06:53:38.208Z,15.35
2022-12-04T06:56:08.095Z,16.15
2022-12-04T06:58:36.095Z,16.33
2022-12-04T07:01:08.226Z,16.80
2022-12-04T07:03:36.431Z,15.60
2022-12-04T07:06:14.302Z,15.70
2022-12-04T07:08:42.384Z,16.48
2022-12-04T07:11:10.439Z,15.27
2022-12-04T07:13:38.131Z,16.73
2022-12-04T07:16:08.491Z,14.48
2022-12-04T07:18:36.925Z,14.75
2022-12-04T07:21:07.584Z,16.58
2022-12-04T07:23:37.170Z,15.35
2022-12-04T07:26:06.513Z,15.60
2022-12-04T07:28:34.447Z,15.35
2022-12-04T07:31:05.002Z,14.82
2022-12-04T07:33:32.808Z,16.20
2022-12-04T07:36:01.807Z,14.48
2022-12-04T07:38:30.754Z,15.55
2022-12-04T07:41:00.804Z,16.55
2022-12-04T07:43:29.959Z,16.17
2022-12-04T07:45:58.153Z,15.75
2022-12-04T07:48:31.745Z,16.85
2022-12-04T07:51:05.445Z,15.77
2022-12-04T07:53:34.241Z,16.52
2022-12-04T07:56:03.437Z,15.88
2022-12-04T07:58:31.085Z,15.55
2022-12-04T08:01:07.016Z,16.40
2022-12-04T08:03:34.754Z,15.88
2022-12-04T08:06:02.644Z,16.20
2022-12-04T08:08:30.592Z,17.75
2022-12-04T08:10:58.317Z,14.02
2022-12-04T08:13:27.365Z,17.52
2022-12-04T08:15:54.959Z,17.23
2022-12-04T08:18:22.621Z,15.93
2022-12-04T08:20:50.261Z,15.05
2022-12-04T08:23:17.934Z,16.35
2022-12-04T08:25:45.599Z,16.98
2022-12-04T08:28:13.242Z,15.32
2022-12-04T08:30:42.261Z,16.20
2022-12-04T08:33:09.926Z,16.05
2022-12-04T08:35:37.546Z,16.95
2022-12-04T08:38:05.177Z,15.52
2022-12-04T08:40:33.246Z,16.02
2022-12-04T08:43:01.042Z,16.58
2022-12-04T08:45:28.683Z,16.08
2022-12-04T08:47:57.724Z,15.63
2022-12-04T08:50:25.337Z,15.40
2022-12-04T08:52:52.962Z,16.40
2022-12-04T08:55:20.601Z,14.52
2022-12-04T08:57:48.276Z,14.60
2022-12-04T09:00:16.959Z,15.75
2022-12-04T09:02:44.695Z,15.90
2022-12-04T09:05:13.671Z,14.05
2022-12-04T09:07:41.341Z,16.67
2022-12-04T09:10:10.334Z,16.20
2022-12-04T09:12:38.018Z,15.00
2022-12-04T09:15:06.632Z,13.32
2022-12-04T09:20:03.419Z,16.30
2022-12-04T09:22:57.820Z,16.42
2022-12-04T09:25:22.019Z,15.13
2022-12-04T09:27:49.669Z,15.05
2022-12-04T09:30:17.332Z,14.70
2022-12-04T09:32:45.004Z,14.35
2022-12-04T09:35:12.629Z,15.45
2022-12-04T09:37:41.606Z,15.90
2022-12-04T09:40:21.898Z,14.57
2022-12-04T09:42:57.806Z,13.98
2022-12-04T09:45:27.284Z,14.25
2022-12-04T09:47:59.253Z,14.77
2022-12-04T09:50:32.816Z,14.57
2022-12-04T09:53:04.617Z,14.68
2022-12-04T09:55:37.316Z,14.63
2022-12-04T09:58:08.153Z,14.10
2022-12-04T10:00:39.910Z,13.57
2022-12-04T10:03:13.359Z,15.02
2022-12-04T10:05:49.569Z,13.90
2022-12-04T10:08:22.546Z,14.77
2022-12-04T10:11:01.324Z,12.57
2022-12-04T10:13:46.047Z,13.13
2022-12-04T10:16:20.709Z,14.80
2022-12-04T10:18:55.526Z,14.23
2022-12-04T10:21:35.192Z,13.93
2022-12-04T10:24:23.747Z,12.60
2022-12-04T10:26:52.543Z,13.10
2022-12-04T10:29:25.344Z,11.45
2022-12-04T10:31:57.207Z,12.05
2022-12-04T10:34:27.137Z,12.55
2022-12-04T10:36:56.737Z,10.88
2022-12-04T10:39:30.893Z,11.75
2022-12-04T10:42:02.870Z,11.80
2022-12-04T10:44:30.839Z,10.75
2022-12-04T10:47:06.090Z,10.07
2022-12-04T10:52:02.997Z,10.23
2022-12-04T10:54:35.188Z,9.90
2022-12-04T10:57:05.037Z,10.38
2022-12-04T10:59:33.119Z,10.73
2022-12-04T11:02:07.011Z,10.20
2022-12-04T11:04:36.647Z,10.52
2022-12-04T11:07:06.770Z,10.52
2022-12-04T11:09:36.735Z,10.98
2022-12-04T11:12:10.467Z,10.23
2022-12-04T11:14:40.731Z,10.23
2022-12-04T11:17:18.411Z,9.15
2022-12-04T11:19:46.561Z,9.65
2022-12-04T11:22:17.319Z,9.27
2022-12-04T11:24:52.119Z,9.93
2022-12-04T11:27:24.651Z,9.68
2022-12-04T11:29:53.187Z,8.80
2022-12-04T11:32:24.166Z,10.13
2022-12-04T11:34:55.102Z,7.90
2022-12-04T11:37:26.980Z,9.48
2022-12-04T11:39:56.910Z,9.20
2022-12-04T11:42:26.335Z,9.52
2022-12-04T11:44:57.346Z,9.25
2022-12-04T11:47:27.046Z,8.57
2022-12-04T11:50:03.307Z,10.23
2022-12-04T11:52:43.072Z,8.73
2022-12-04T11:55:17.324Z,8.52
2022-12-04T11:57:50.893Z,8.63
2022-12-04T12:00:20.237Z,9.68
2022-12-04T12:03:05.939Z,9.00
2022-12-04T12:05:50.586Z,9.88
2022-12-04T12:08:30.155Z,9.80
2022-12-04T12:11:06.933Z,8.40
2022-12-04T12:13:46.332Z,7.85
2022-12-04T12:16:25.682Z,8.25
2022-12-04T12:19:08.465Z,8.23
2022-12-04T12:21:44.389Z,8.38
2022-12-04T12:24:25.817Z,8.60
2022-12-04T12:27:07.744Z,8.05
2022-12-04T12:29:47.991Z,9.40
2022-12-04T12:32:32.422Z,8.68
2022-12-04T12:35:01.440Z,7.60
2022-12-04T12:37:38.971Z,8.30
2022-12-04T12:40:15.734Z,8.32
2022-12-04T12:42:58.007Z,8.00
2022-12-04T12:45:33.328Z,7.88
2022-12-04T12:48:09.576Z,8.05
2022-12-04T12:50:44.584Z,8.57
2022-12-04T12:53:18.884Z,8.13
2022-12-04T12:55:51.424Z,8.27
2022-12-04T12:58:29.135Z,8.07
2022-12-04T13:01:01.177Z,8.15
2022-12-04T13:03:38.443Z,8.63
2022-12-04T13:06:13.493Z,8.55
2022-12-04T13:08:49.470Z,8.77
2022-12-04T13:11:21.072Z,8.05
2022-12-04T13:13:53.470Z,7.13
2022-12-04T13:16:25.442Z,9.57
2022-12-04T13:19:12.984Z,7.72
2022-12-04T13:21:45.160Z,8.93
2022-12-04T13:24:46.958Z,7.65
2022-12-04T13:27:23.828Z,8.18
2022-12-04T13:30:04.852Z,8.55
2022-12-04T13:33:05.540Z,8.68
2022-12-04T13:35:53.071Z,8.57
2022-12-04T13:38:29.451Z,8.75
2022-12-04T13:40:58.928Z,8.40
2022-12-04T13:43:33.187Z,8.35
2022-12-04T13:46:05.951Z,8.68
2022-12-04T13:48:40.592Z,8.90
2022-12-04T13:51:24.052Z,9.05
2022-12-04T13:54:02.335Z,7.78
2022-12-04T13:56:31.858Z,9.52
2022-12-04T13:59:02.391Z,8.63
2022-12-04T14:01:38.763Z,8.00
2022-12-04T14:04:07.372Z,10.25
2022-12-04T14:06:38.547Z,9.18
2022-12-04T14:09:09.724Z,9.48
2022-12-04T14:11:46.640Z,9.70
2022-12-04T14:14:26.712Z,8.80
2022-12-04T14:16:57.207Z,8.82
2022-12-04T14:19:32.395Z,9.60
2022-12-04T14:24:35.033Z,9.82
2022-12-04T14:27:11.709Z,9.77
2022-12-04T14:29:48.564Z,10.15
2022-12-04T14:32:22.821Z,9.93
2022-12-04T14:34:51.175Z,10.73
2022-12-04T14:39:54.454Z,9.63
2022-12-04T14:42:25.392Z,9.38
2022-12-04T14:44:56.758Z,11.05
2022-12-04T14:47:40.153Z,11.27
2022-12-04T14:50:31.799Z,11.80
2022-12-04T14:53:07.303Z,12.02
2022-12-04T14:55:42.672Z,11.63
2022-12-04T14:58:32.462Z,12.15
2022-12-04T15:01:02.226Z,11.20
2022-12-04T15:03:36.296Z,13.70
2022-12-04T15:06:06.496Z,12.55
2022-12-04T15:08:34.511Z,12.52
2022-12-04T15:11:16.129Z,12.02
2022-12-04T15:13:43.779Z,12.90
2022-12-04T15:16:16.630Z,12.68
2022-12-04T15:18:55.969Z,13.25
2022-12-04T15:21:25.666Z,14.90
2022-12-04T15:23:53.364Z,12.90
2022-12-04T15:26:25.178Z,12.18
2022-12-04T15:28:57.304Z,14.07
2022-12-04T15:31:28.307Z,13.63
2022-12-04T15:34:01.835Z,13.18
2022-12-04T15:36:44.645Z,13.63
2022-12-04T15:39:16.769Z,12.73
2022-12-04T15:41:44.492Z,13.32
2022-12-04T15:44:29.076Z,14.18
2022-12-04T15:46:59.201Z,12.88
2022-12-04T15:49:29.880Z,13.50
2022-12-04T15:52:06.696Z,13.45
2022-12-04T15:54:36.172Z,12.95
2022-12-04T15:57:06.670Z,11.82
2022-12-04T15:59:36.419Z,14.25
2022-12-04T16:02:08.958Z,13.20
2022-12-04T16:04:43.988Z,13.60
2022-12-04T16:07:21.632Z,14.27
2022-12-04T16:10:01.091Z,13.20
2022-12-04T16:12:32.859Z,13.82
2022-12-04T16:15:00.502Z,13.98
2022-12-04T16:17:31.576Z,13.35
2022-12-04T16:20:01.788Z,13.00
2022-12-04T16:22:31.368Z,14.95
2022-12-04T16:24:59.313Z,14.32
2022-12-04T16:27:27.189Z,13.25
2022-12-04T16:29:54.993Z,14.73
2022-12-04T16:32:27.186Z,15.75
2022-12-04T16:34:55.162Z,13.45
2022-12-04T16:39:52.112Z,12.75
2022-12-04T16:42:24.217Z,13.60
2022-12-04T16:44:52.497Z,14.75
2022-12-04T16:49:50.721Z,12.65
2022-12-04T16:52:19.122Z,14.73
2022-12-04T16:54:48.646Z,12.13
2022-12-04T16:57:16.327Z,14.15
2022-12-04T16:59:43.976Z,14.55
2022-12-04T17:02:17.062Z,14.25
2022-12-04T17:04:44.761Z,13.77
2022-12-04T17:07:12.461Z,13.13
2022-12-04T17:09:40.152Z,14.07
2022-12-04T17:12:09.370Z,15.95
2022-12-04T17:14:37.006Z,14.88
2022-12-04T17:17:04.690Z,14.02
2022-12-04T17:19:32.422Z,13.50
2022-12-04T17:22:01.238Z,12.80
2022-12-04T17:24:28.957Z,12.57
2022-12-04T17:26:58.095Z,13.98
2022-12-04T17:29:27.168Z,13.23
2022-12-04T17:31:54.912Z,13.32
2022-12-04T17:34:22.567Z,12.43
2022-12-04T17:36:50.233Z,14.30
2022-12-04T17:39:17.871Z,14.23
2022-12-04T17:41:45.507Z,12.45
2022-12-04T17:44:13.200Z,11.48
2022-12-04T17:46:42.514Z,14.55
2022-12-04T17:49:10.261Z,13.93
2022-12-04T17:51:38.184Z,10.60
2022-12-04T17:54:06.611Z,12.43
2022-12-04T17:56:34.799Z,13.48
2022-12-04T17:59:02.426Z,12.98
2022-12-04T18:01:30.868Z,12.65
2022-12-04T18:04:01.814Z,10.60
2022-12-04T18:06:31.749Z,12.00
2022-12-04T18:09:00.236Z,11.82
2022-12-04T18:11:31.104Z,10.57
2022-12-04T18:14:00.936Z,11.27
2022-12-04T18:16:30.733Z,11.35
2022-12-04T18:19:01.505Z,11.95
2022-12-04T18:21:30.245Z,10.82
2022-12-04T18:23:59.091Z,12.50
2022-12-04T18:26:28.560Z,11.85
2022-12-04T18:28:56.714Z,11.27
2022-12-04T18:31:24.848Z,12.85
2022-12-04T18:33:52.552Z,12.27
2022-12-04T18:36:23.658Z,11.95
2022-12-04T18:38:55.481Z,13.00
2022-12-04T18:41:23.370Z,13.57
2022-12-04T18:43:51.913Z,14.18
2022-12-04T18:48:48.890Z,13.35
2022-12-04T18:51:18.974Z,14.25
2022-12-04T18:53:48.337Z,14.77
2022-12-04T18:56:16.694Z,12.77
2022-12-04T18:58:46.382Z,14.50
2022-12-04T19:01:18.318Z,13.60
2022-12-04T19:03:46.991Z,14.52
2022-12-04T19:06:14.935Z,13.80
2022-12-04T19:08:43.631Z,14.77
2022-12-04T19:11:15.208Z,15.63
2022-12-04T19:13:43.748Z,14.68
2022-12-04T19:18:40.195Z,15.02
2022-12-04T19:21:08.783Z,15.15
2022-12-04T19:26:04.566Z,15.73
2022-12-04T19:28:33.704Z,16.02
2022-12-04T19:31:01.427Z,15.63
2022-12-04T19:33:29.367Z,14.63
2022-12-04T19:35:58.646Z,15.68
2022-12-04T19:38:26.936Z,13.90
2022-12-04T19:41:04.631Z,16.50
2022-12-04T19:43:33.627Z,15.93
2022-12-04T19:46:01.382Z,15.40
2022-12-04T19:48:29.312Z,15.63
2022-12-04T19:50:57.148Z,15.23
2022-12-04T19:53:24.803Z,16.23
2022-12-04T19:55:52.542Z,15.30
2022-12-04T19:58:20.275Z,15.95
2022-12-04T20:00:49.681Z,14.40
2022-12-04T20:03:17.396Z,16.90
2022-12-04T20:05:45.071Z,16.08
2022-12-04T20:10:39.393Z,15.20
2022-12-04T20:13:07.037Z,16.45
2022-12-04T20:15:36.384Z,15.18
2022-12-04T20:18:06.023Z,16.92
2022-12-04T20:20:33.826Z,15.95
2022-12-04T20:23:01.532Z,16.55
2022-12-04T20:25:29.267Z,16.15
2022-12-04T20:27:56.923Z,16.58
2022-12-04T20:30:24.667Z,18.02
2022-12-04T20:32:52.351Z,16.95
2022-12-04T20:35:21.424Z,16.30
2022-12-04T20:37:49.163Z,17.10
2022-12-04T20:40:18.308Z,15.50
2022-12-04T20:42:46.025Z,15.30
2022-12-04T20:45:13.709Z,16.13
2022-12-04T20:47:41.548Z,16.05
2022-12-04T20:50:10.377Z,15.32
2022-12-04T20:52:39.627Z,17.00
2022-12-04T20:55:08.895Z,15.57
2022-12-04T20:57:37.393Z,17.38
2022-12-04T21:02:47.318Z,15.88
2022-12-04T21:05:15.006Z,15.25
2022-12-04T21:07:44.076Z,17.33
2022-12-04T21:10:12.232Z,14.63
2022-12-04T21:12:57.492Z,15.40
2022-12-04T21:15:42.807Z,15.65
2022-12-04T21:18:10.479Z,16.90
2022-12-04T21:20:38.107Z,18.33
2022-12-04T21:23:07.123Z,16.02
2022-12-04T21:25:34.812Z,16.40
2022-12-04T21:28:02.486Z,16.02
2022-12-04T21:30:30.184Z,15.73
2022-12-04T21:32:57.872Z,15.25
2022-12-04T21:35:25.536Z,16.88
2022-12-04T21:37:53.192Z,16.65
2022-12-04T21:40:22.176Z,15.15
2022-12-04T21:42:49.852Z,15.93
2022-12-04T21:45:17.676Z,17.10
2022-12-04T21:47:45.312Z,15.90
2022-12-04T21:50:12.947Z,16.52
2022-12-04T21:52:40.681Z,17.02
2022-12-04T21:55:08.796Z,18.08
2022-12-04T21:57:37.854Z,16.08
2022-12-04T22:00:06.699Z,17.13
2022-12-04T22:02:36.282Z,16.27
2022-12-04T22:05:04.285Z,17.35
2022-12-04T22:07:31.987Z,16.35
2022-12-04T22:10:00.626Z,17.77
2022-12-04T22:12:48.919Z,16.63
2022-12-04T22:15:19.859Z,17.23
2022-12-04T22:17:47.536Z,16.40
2022-12-04T22:20:16.174Z,16.50
2022-12-04T22:22:43.880Z,17.17
2022-12-04T22:25:11.686Z,17.30
2022-12-04T22:27:39.359Z,18.35
2022-12-04T22:30:08.582Z,16.60
2022-12-04T22:32:37.672Z,15.52
2022-12-04T22:35:05.824Z,15.63
2022-12-04T22:37:33.642Z,16.13
2022-12-04T22:40:01.357Z,16.98
2022-12-04T22:42:29.376Z,16.58
2022-12-04T22:44:57.031Z,17.08
2022-12-04T22:47:24.791Z,16.13
2022-12-04T22:49:53.872Z,16.75
2022-12-04T22:52:21.545Z,15.50
2022-12-04T22:54:51.068Z,16.13
2022-12-04T22:57:19.137Z,16.38
2022-12-04T22:59:47.064Z,16.80
2022-12-04T23:02:14.721Z,15.95
2022-12-04T23:04:43.661Z,15.20
2022-12-04T23:07:12.965Z,13.68
2022-12-04T23:09:40.706Z,14.10
2022-12-04T23:12:08.452Z,16.42
2022-12-04T23:14:36.876Z,15.60
2022-12-04T23:19:32.523Z,13.50
2022-12-04T23:22:00.165Z,16.40
2022-12-04T23:24:29.158Z,15.50
2022-12-04T23:26:56.825Z,14.27
2022-12-04T23:32:12.177Z,14.80
2022-12-04T23:34:39.874Z,16.33
2022-12-04T23:37:07.513Z,15.63
2022-12-04T23:39:36.557Z,14.13
2022-12-04T23:42:04.473Z,15.07
2022-12-04T23:44:32.202Z,14.65
2022-12-04T23:46:59.928Z,14.00
2022-12-04T23:49:27.708Z,13.43
2022-12-04T23:51:55.341Z,12.90
2022-12-04T23:54:22.994Z,14.10
2022-12-04T23:56:51.999Z,14.82
2022-12-04T23:59:21.263Z,15.65
